sensor_id;sensor_type;location;lat;lon;timestamp;pressure;altitude;pressure_sealevel;temperature;humidity
64292;BME280;50628;51.008;13.658;2023-11-21T00:02:50;99041.09;;;8.58;100.00
64292;BME280;50628;51.008;13.658;2023-11-21T00:07:52;99040.66;;;8.53;100.00
64292;BME280;50628;51.008;13.658;2023-11-21T00:12:54;99042.97;;;8.56;100.00
64292;BME280;50628;51.008;13.658;2023-11-21T00:17:57;99041.56;;;8.42;100.00
64292;BME280;50628;51.008;13.658;2023-11-21T00:22:59;99040.47;;;8.44;100.00
64292;BME280;50628;51.008;13.658;2023-11-21T00:28:03;99045.66;;;8.44;100.00
64292;BME280;50628;51.008;13.658;2023-11-21T00:33:06;99041.03;;;8.48;100.00
64292;BME280;50628;51.008;13.658;2023-11-21T00:38:08;99047.56;;;8.42;100.00
64292;BME280;50628;51.008;13.658;2023-11-21T00:43:10;99051.22;;;8.40;100.00
64292;BME280;50628;51.008;13.658;2023-11-21T00:48:13;99058.63;;;8.44;100.00
64292;BME280;50628;51.008;13.658;2023-11-21T00:53:15;99059.44;;;8.45;100.00
64292;BME280;50628;51.008;13.658;2023-11-21T00:58:17;99065.34;;;8.47;100.00
64292;BME280;50628;51.008;13.658;2023-11-21T01:03:22;99059.00;;;8.40;100.00
64292;BME280;50628;51.008;13.658;2023-11-21T01:08:24;99070.75;;;8.44;100.00
64292;BME280;50628;51.008;13.658;2023-11-21T01:13:26;99084.56;;;8.44;100.00
64292;BME280;50628;51.008;13.658;2023-11-21T01:18:31;99076.78;;;8.44;100.00
64292;BME280;50628;51.008;13.658;2023-11-21T01:23:33;99080.75;;;8.49;100.00
64292;BME280;50628;51.008;13.658;2023-11-21T01:28:35;99083.94;;;8.52;100.00
64292;BME280;50628;51.008;13.658;2023-11-21T01:33:38;99078.53;;;8.44;100.00
64292;BME280;50628;51.008;13.658;2023-11-21T01:38:41;99080.44;;;8.42;100.00
64292;BME280;50628;51.008;13.658;2023-11-21T01:43:43;99081.38;;;8.41;100.00
64292;BME280;50628;51.008;13.658;2023-11-21T01:48:48;99067.47;;;8.42;100.00
64292;BME280;50628;51.008;13.658;2023-11-21T01:53:50;99071.22;;;8.38;100.00
64292;BME280;50628;51.008;13.658;2023-11-21T01:58:52;99076.22;;;8.30;100.00
64292;BME280;50628;51.008;13.658;2023-11-21T02:03:56;99074.66;;;8.38;100.00
64292;BME280;50628;51.008;13.658;2023-11-21T02:08:57;99071.31;;;8.27;100.00
64292;BME280;50628;51.008;13.658;2023-11-21T02:14:01;99066.69;;;8.30;100.00
64292;BME280;50628;51.008;13.658;2023-11-21T02:19:07;99079.53;;;8.32;100.00
64292;BME280;50628;51.008;13.658;2023-11-21T02:24:11;99087.97;;;8.34;100.00
64292;BME280;50628;51.008;13.658;2023-11-21T02:29:14;99080.59;;;8.29;100.00
64292;BME280;50628;51.008;13.658;2023-11-21T02:34:18;99089.16;;;8.41;100.00
64292;BME280;50628;51.008;13.658;2023-11-21T02:39:21;99090.47;;;8.35;100.00
64292;BME280;50628;51.008;13.658;2023-11-21T02:44:24;99098.81;;;8.39;100.00
64292;BME280;50628;51.008;13.658;2023-11-21T02:49:26;99085.34;;;8.24;100.00
64292;BME280;50628;51.008;13.658;2023-11-21T02:54:30;99096.69;;;8.12;100.00
64292;BME280;50628;51.008;13.658;2023-11-21T02:59:36;99095.28;;;8.08;100.00
64292;BME280;50628;51.008;13.658;2023-11-21T03:04:38;99101.75;;;8.13;100.00
64292;BME280;50628;51.008;13.658;2023-11-21T03:09:41;99104.22;;;8.15;100.00
64292;BME280;50628;51.008;13.658;2023-11-21T03:14:43;99104.09;;;8.16;100.00
64292;BME280;50628;51.008;13.658;2023-11-21T03:19:45;99111.50;;;8.21;100.00
64292;BME280;50628;51.008;13.658;2023-11-21T03:24:48;99104.47;;;8.12;100.00
64292;BME280;50628;51.008;13.658;2023-11-21T03:29:50;99109.25;;;8.16;100.00
64292;BME280;50628;51.008;13.658;2023-11-21T03:34:53;99107.63;;;8.15;100.00
64292;BME280;50628;51.008;13.658;2023-11-21T03:39:58;99107.00;;;8.23;100.00
64292;BME280;50628;51.008;13.658;2023-11-21T03:45:00;99100.75;;;8.26;100.00
64292;BME280;50628;51.008;13.658;2023-11-21T03:50:04;99103.22;;;8.27;100.00
64292;BME280;50628;51.008;13.658;2023-11-21T03:55:08;99115.16;;;8.18;100.00
64292;BME280;50628;51.008;13.658;2023-11-21T04:00:11;99120.13;;;8.10;100.00
64292;BME280;50628;51.008;13.658;2023-11-21T04:05:13;99118.09;;;8.14;100.00
64292;BME280;50628;51.008;13.658;2023-11-21T04:10:17;99121.78;;;8.11;100.00
64292;BME280;50628;51.008;13.658;2023-11-21T04:15:19;99127.41;;;8.16;100.00
64292;BME280;50628;51.008;13.658;2023-11-21T04:20:21;99125.53;;;8.18;100.00
64292;BME280;50628;51.008;13.658;2023-11-21T04:25:25;99122.47;;;8.13;100.00
64292;BME280;50628;51.008;13.658;2023-11-21T04:30:27;99131.22;;;8.12;100.00
64292;BME280;50628;51.008;13.658;2023-11-21T04:35:29;99138.84;;;8.14;100.00
64292;BME280;50628;51.008;13.658;2023-11-21T04:40:32;99142.28;;;8.14;100.00
64292;BME280;50628;51.008;13.658;2023-11-21T04:45:34;99145.50;;;8.07;100.00
64292;BME280;50628;51.008;13.658;2023-11-21T04:50:36;99146.41;;;8.06;100.00
64292;BME280;50628;51.008;13.658;2023-11-21T04:55:39;99158.00;;;8.01;100.00
64292;BME280;50628;51.008;13.658;2023-11-21T05:00:42;99157.00;;;8.14;100.00
64292;BME280;50628;51.008;13.658;2023-11-21T05:05:43;99153.38;;;8.05;100.00
64292;BME280;50628;51.008;13.658;2023-11-21T05:10:47;99153.13;;;8.08;100.00
64292;BME280;50628;51.008;13.658;2023-11-21T05:15:49;99162.53;;;8.20;100.00
64292;BME280;50628;51.008;13.658;2023-11-21T05:20:51;99166.53;;;8.24;100.00
64292;BME280;50628;51.008;13.658;2023-11-21T05:25:55;99171.97;;;8.21;100.00
64292;BME280;50628;51.008;13.658;2023-11-21T05:30:57;99183.00;;;8.23;100.00
64292;BME280;50628;51.008;13.658;2023-11-21T05:35:59;99172.63;;;8.35;100.00
64292;BME280;50628;51.008;13.658;2023-11-21T05:41:02;99178.16;;;8.30;100.00
64292;BME280;50628;51.008;13.658;2023-11-21T05:46:05;99186.31;;;8.26;100.00
64292;BME280;50628;51.008;13.658;2023-11-21T05:51:07;99189.97;;;8.23;100.00
64292;BME280;50628;51.008;13.658;2023-11-21T05:56:11;99196.22;;;8.20;100.00
64292;BME280;50628;51.008;13.658;2023-11-21T06:01:14;99190.00;;;8.12;100.00
64292;BME280;50628;51.008;13.658;2023-11-21T06:06:15;99190.63;;;8.04;100.00
64292;BME280;50628;51.008;13.658;2023-11-21T06:11:21;99199.22;;;7.93;100.00
64292;BME280;50628;51.008;13.658;2023-11-21T06:16:22;99213.69;;;7.96;100.00
64292;BME280;50628;51.008;13.658;2023-11-21T06:21:24;99216.28;;;7.96;100.00
64292;BME280;50628;51.008;13.658;2023-11-21T06:26:28;99204.50;;;8.03;100.00
64292;BME280;50628;51.008;13.658;2023-11-21T06:31:31;99217.97;;;7.97;100.00
64292;BME280;50628;51.008;13.658;2023-11-21T06:36:33;99217.03;;;7.87;100.00
64292;BME280;50628;51.008;13.658;2023-11-21T06:41:36;99226.44;;;7.99;100.00
64292;BME280;50628;51.008;13.658;2023-11-21T06:46:39;99227.47;;;8.08;100.00
64292;BME280;50628;51.008;13.658;2023-11-21T06:51:42;99228.19;;;8.10;100.00
64292;BME280;50628;51.008;13.658;2023-11-21T06:56:46;99225.69;;;8.08;100.00
64292;BME280;50628;51.008;13.658;2023-11-21T07:01:48;99232.56;;;8.09;100.00
64292;BME280;50628;51.008;13.658;2023-11-21T07:06:50;99230.56;;;8.01;100.00
64292;BME280;50628;51.008;13.658;2023-11-21T07:11:54;99239.63;;;7.96;100.00
64292;BME280;50628;51.008;13.658;2023-11-21T07:16:56;99243.06;;;7.96;100.00
64292;BME280;50628;51.008;13.658;2023-11-21T07:21:59;99250.44;;;8.01;100.00
64292;BME280;50628;51.008;13.658;2023-11-21T07:27:02;99257.53;;;7.99;100.00
64292;BME280;50628;51.008;13.658;2023-11-21T07:32:05;99266.34;;;8.08;100.00
64292;BME280;50628;51.008;13.658;2023-11-21T07:37:07;99265.84;;;8.14;100.00
64292;BME280;50628;51.008;13.658;2023-11-21T07:42:10;99266.25;;;8.09;100.00
64292;BME280;50628;51.008;13.658;2023-11-21T07:47:12;99273.16;;;8.09;100.00
64292;BME280;50628;51.008;13.658;2023-11-21T07:52:14;99283.44;;;8.10;100.00
64292;BME280;50628;51.008;13.658;2023-11-21T07:57:18;99285.88;;;8.23;100.00
64292;BME280;50628;51.008;13.658;2023-11-21T08:02:19;99284.50;;;8.19;100.00
64292;BME280;50628;51.008;13.658;2023-11-21T08:07:21;99299.22;;;8.18;100.00
64292;BME280;50628;51.008;13.658;2023-11-21T08:12:24;99290.03;;;8.14;100.00
64292;BME280;50628;51.008;13.658;2023-11-21T08:17:28;99298.41;;;8.29;100.00
64292;BME280;50628;51.008;13.658;2023-11-21T08:22:30;99300.63;;;8.00;100.00
64292;BME280;50628;51.008;13.658;2023-11-21T08:27:33;99307.91;;;7.84;100.00
64292;BME280;50628;51.008;13.658;2023-11-21T08:32:35;99316.91;;;8.02;100.00
64292;BME280;50628;51.008;13.658;2023-11-21T08:37:37;99311.72;;;8.02;100.00
64292;BME280;50628;51.008;13.658;2023-11-21T08:42:40;99306.88;;;8.09;100.00
64292;BME280;50628;51.008;13.658;2023-11-21T08:47:43;99305.44;;;8.16;100.00
64292;BME280;50628;51.008;13.658;2023-11-21T08:52:47;99311.38;;;8.07;100.00
64292;BME280;50628;51.008;13.658;2023-11-21T08:57:50;99323.72;;;8.03;100.00
64292;BME280;50628;51.008;13.658;2023-11-21T09:02:52;99320.09;;;7.94;100.00
64292;BME280;50628;51.008;13.658;2023-11-21T09:07:54;99335.03;;;7.91;100.00
64292;BME280;50628;51.008;13.658;2023-11-21T09:12:57;99331.47;;;7.80;100.00
64292;BME280;50628;51.008;13.658;2023-11-21T09:17:59;99350.31;;;7.83;100.00
64292;BME280;50628;51.008;13.658;2023-11-21T09:23:02;99356.22;;;7.96;100.00
64292;BME280;50628;51.008;13.658;2023-11-21T09:28:05;99358.34;;;7.79;100.00
64292;BME280;50628;51.008;13.658;2023-11-21T09:33:09;99354.78;;;7.80;100.00
64292;BME280;50628;51.008;13.658;2023-11-21T09:38:11;99363.00;;;7.63;100.00
64292;BME280;50628;51.008;13.658;2023-11-21T09:43:16;99365.41;;;7.77;100.00
64292;BME280;50628;51.008;13.658;2023-11-21T09:48:19;99377.78;;;7.85;100.00
64292;BME280;50628;51.008;13.658;2023-11-21T09:53:22;99376.44;;;7.68;100.00
64292;BME280;50628;51.008;13.658;2023-11-21T09:58:27;99383.72;;;7.28;100.00
64292;BME280;50628;51.008;13.658;2023-11-21T10:03:28;99396.50;;;6.94;100.00
64292;BME280;50628;51.008;13.658;2023-11-21T10:08:32;99407.56;;;6.96;100.00
64292;BME280;50628;51.008;13.658;2023-11-21T10:13:36;99409.41;;;6.57;100.00
64292;BME280;50628;51.008;13.658;2023-11-21T10:18:38;99418.97;;;6.93;100.00
64292;BME280;50628;51.008;13.658;2023-11-21T10:23:41;99425.78;;;6.58;100.00
64292;BME280;50628;51.008;13.658;2023-11-21T10:28:56;99431.00;;;6.82;100.00
64292;BME280;50628;51.008;13.658;2023-11-21T10:34:12;99439.66;;;6.44;100.00
64292;BME280;50628;51.008;13.658;2023-11-21T10:39:14;99454.34;;;6.05;100.00
64292;BME280;50628;51.008;13.658;2023-11-21T10:44:20;99458.47;;;5.95;100.00
64292;BME280;50628;51.008;13.658;2023-11-21T10:49:25;99456.41;;;5.73;100.00
64292;BME280;50628;51.008;13.658;2023-11-21T10:54:27;99468.78;;;5.68;100.00
64292;BME280;50628;51.008;13.658;2023-11-21T10:59:31;99465.34;;;5.27;100.00
64292;BME280;50628;51.008;13.658;2023-11-21T11:04:34;99482.97;;;5.48;100.00
64292;BME280;50628;51.008;13.658;2023-11-21T11:09:38;99476.47;;;5.42;100.00
64292;BME280;50628;51.008;13.658;2023-11-21T11:14:42;99489.38;;;5.42;100.00
64292;BME280;50628;51.008;13.658;2023-11-21T11:19:46;99486.66;;;5.43;100.00
64292;BME280;50628;51.008;13.658;2023-11-21T11:25:03;99499.09;;;5.24;100.00
64292;BME280;50628;51.008;13.658;2023-11-21T11:30:26;99499.72;;;5.28;100.00
64292;BME280;50628;51.008;13.658;2023-11-21T11:35:34;99501.41;;;5.41;100.00
64292;BME280;50628;51.008;13.658;2023-11-21T11:40:39;99510.56;;;5.47;100.00
64292;BME280;50628;51.008;13.658;2023-11-21T11:45:43;99507.56;;;5.53;100.00
64292;BME280;50628;51.008;13.658;2023-11-21T11:51:02;99516.00;;;5.70;100.00
64292;BME280;50628;51.008;13.658;2023-11-21T11:56:25;99518.78;;;5.39;100.00
64292;BME280;50628;51.008;13.658;2023-11-21T12:01:32;99517.63;;;4.73;100.00
64292;BME280;50628;51.008;13.658;2023-11-21T12:06:35;99523.63;;;5.03;100.00
64292;BME280;50628;51.008;13.658;2023-11-21T12:11:37;99527.88;;;4.75;100.00
64292;BME280;50628;51.008;13.658;2023-11-21T12:16:40;99537.34;;;5.03;100.00
64292;BME280;50628;51.008;13.658;2023-11-21T12:21:43;99544.72;;;4.95;100.00
64292;BME280;50628;51.008;13.658;2023-11-21T12:26:45;99546.41;;;4.82;100.00
64292;BME280;50628;51.008;13.658;2023-11-21T12:31:50;99562.41;;;4.87;100.00
64292;BME280;50628;51.008;13.658;2023-11-21T12:36:52;99556.63;;;4.69;100.00
64292;BME280;50628;51.008;13.658;2023-11-21T12:41:55;99559.81;;;5.01;100.00
64292;BME280;50628;51.008;13.658;2023-11-21T12:46:59;99558.16;;;4.86;100.00
64292;BME280;50628;51.008;13.658;2023-11-21T12:52:02;99564.81;;;4.90;100.00
64292;BME280;50628;51.008;13.658;2023-11-21T12:57:05;99568.84;;;5.23;100.00
64292;BME280;50628;51.008;13.658;2023-11-21T13:02:12;99579.53;;;5.16;100.00
64292;BME280;50628;51.008;13.658;2023-11-21T13:07:16;99575.31;;;5.15;100.00
64292;BME280;50628;51.008;13.658;2023-11-21T13:12:23;99592.97;;;5.36;100.00
64292;BME280;50628;51.008;13.658;2023-11-21T13:17:27;99585.63;;;5.30;100.00
64292;BME280;50628;51.008;13.658;2023-11-21T13:22:28;99592.06;;;5.08;100.00
64292;BME280;50628;51.008;13.658;2023-11-21T13:27:31;99601.56;;;4.79;100.00
64292;BME280;50628;51.008;13.658;2023-11-21T13:32:36;99608.50;;;4.63;100.00
64292;BME280;50628;51.008;13.658;2023-11-21T13:37:37;99617.41;;;5.02;100.00
64292;BME280;50628;51.008;13.658;2023-11-21T13:42:40;99621.47;;;4.91;100.00
64292;BME280;50628;51.008;13.658;2023-11-21T13:47:44;99640.38;;;4.76;100.00
64292;BME280;50628;51.008;13.658;2023-11-21T13:52:46;99643.56;;;4.95;100.00
64292;BME280;50628;51.008;13.658;2023-11-21T13:57:47;99650.75;;;4.90;100.00
64292;BME280;50628;51.008;13.658;2023-11-21T14:02:53;99650.00;;;4.58;100.00
64292;BME280;50628;51.008;13.658;2023-11-21T14:07:57;99658.75;;;4.55;100.00
64292;BME280;50628;51.008;13.658;2023-11-21T14:13:03;99668.03;;;4.28;100.00
64292;BME280;50628;51.008;13.658;2023-11-21T14:18:07;99675.00;;;4.42;100.00
64292;BME280;50628;51.008;13.658;2023-11-21T14:23:11;99661.63;;;4.35;100.00
64292;BME280;50628;51.008;13.658;2023-11-21T14:28:13;99682.19;;;4.05;100.00
64292;BME280;50628;51.008;13.658;2023-11-21T14:33:16;99686.59;;;4.03;100.00
64292;BME280;50628;51.008;13.658;2023-11-21T14:38:18;99692.34;;;3.92;100.00
64292;BME280;50628;51.008;13.658;2023-11-21T14:43:20;99710.88;;;3.99;100.00
64292;BME280;50628;51.008;13.658;2023-11-21T14:48:24;99715.84;;;3.53;100.00
64292;BME280;50628;51.008;13.658;2023-11-21T14:53:42;99716.22;;;3.62;100.00
64292;BME280;50628;51.008;13.658;2023-11-21T14:58:54;99730.72;;;3.81;100.00
64292;BME280;50628;51.008;13.658;2023-11-21T15:03:58;99736.69;;;3.97;100.00
64292;BME280;50628;51.008;13.658;2023-11-21T15:09:00;99734.78;;;4.17;100.00
64292;BME280;50628;51.008;13.658;2023-11-21T15:14:16;99745.41;;;3.79;100.00
64292;BME280;50628;51.008;13.658;2023-11-21T15:19:25;99742.00;;;3.78;100.00
64292;BME280;50628;51.008;13.658;2023-11-21T15:24:28;99750.19;;;3.69;100.00
64292;BME280;50628;51.008;13.658;2023-11-21T15:29:30;99759.75;;;3.83;100.00
64292;BME280;50628;51.008;13.658;2023-11-21T15:34:33;99750.81;;;3.90;100.00
64292;BME280;50628;51.008;13.658;2023-11-21T15:39:35;99768.47;;;3.80;100.00
64292;BME280;50628;51.008;13.658;2023-11-21T15:44:37;99766.59;;;4.00;100.00
64292;BME280;50628;51.008;13.658;2023-11-21T15:49:41;99776.25;;;3.96;100.00
64292;BME280;50628;51.008;13.658;2023-11-21T15:54:43;99785.75;;;3.78;100.00
64292;BME280;50628;51.008;13.658;2023-11-21T15:59:46;99793.00;;;3.87;100.00
64292;BME280;50628;51.008;13.658;2023-11-21T16:04:49;99789.75;;;3.51;100.00
64292;BME280;50628;51.008;13.658;2023-11-21T16:09:51;99795.41;;;3.40;100.00
64292;BME280;50628;51.008;13.658;2023-11-21T16:14:53;99818.13;;;3.49;100.00
64292;BME280;50628;51.008;13.658;2023-11-21T16:19:56;99813.13;;;3.29;100.00
64292;BME280;50628;51.008;13.658;2023-11-21T16:24:59;99819.25;;;3.26;100.00
64292;BME280;50628;51.008;13.658;2023-11-21T16:30:04;99832.41;;;3.37;100.00
64292;BME280;50628;51.008;13.658;2023-11-21T16:35:08;99839.31;;;3.54;100.00
64292;BME280;50628;51.008;13.658;2023-11-21T16:40:11;99850.41;;;3.20;100.00
64292;BME280;50628;51.008;13.658;2023-11-21T16:45:13;99844.63;;;3.34;100.00
64292;BME280;50628;51.008;13.658;2023-11-21T16:50:16;99860.72;;;3.55;100.00
64292;BME280;50628;51.008;13.658;2023-11-21T16:55:18;99867.41;;;3.59;100.00
64292;BME280;50628;51.008;13.658;2023-11-21T17:00:20;99870.78;;;3.59;100.00
64292;BME280;50628;51.008;13.658;2023-11-21T17:05:24;99887.31;;;3.38;100.00
64292;BME280;50628;51.008;13.658;2023-11-21T17:10:26;99886.00;;;3.46;100.00
64292;BME280;50628;51.008;13.658;2023-11-21T17:15:28;99896.31;;;3.46;100.00
64292;BME280;50628;51.008;13.658;2023-11-21T17:20:31;99901.28;;;3.50;100.00
64292;BME280;50628;51.008;13.658;2023-11-21T17:25:33;99900.81;;;3.24;100.00
64292;BME280;50628;51.008;13.658;2023-11-21T17:30:36;99914.41;;;2.90;100.00
64292;BME280;50628;51.008;13.658;2023-11-21T17:35:40;99916.03;;;2.73;100.00
64292;BME280;50628;51.008;13.658;2023-11-21T17:40:42;99927.69;;;2.99;100.00
64292;BME280;50628;51.008;13.658;2023-11-21T17:45:45;99935.81;;;3.09;100.00
64292;BME280;50628;51.008;13.658;2023-11-21T17:50:48;99943.59;;;2.89;100.00
64292;BME280;50628;51.008;13.658;2023-11-21T17:55:50;99952.56;;;2.99;100.00
64292;BME280;50628;51.008;13.658;2023-11-21T18:00:52;99953.13;;;3.06;100.00
64292;BME280;50628;51.008;13.658;2023-11-21T18:05:55;99954.31;;;2.98;100.00
64292;BME280;50628;51.008;13.658;2023-11-21T18:10:57;99960.91;;;2.85;100.00
64292;BME280;50628;51.008;13.658;2023-11-21T18:16:01;99963.59;;;2.82;100.00
64292;BME280;50628;51.008;13.658;2023-11-21T18:21:04;99973.63;;;2.88;100.00
64292;BME280;50628;51.008;13.658;2023-11-21T18:26:07;99986.47;;;2.88;100.00
64292;BME280;50628;51.008;13.658;2023-11-21T18:31:09;99985.94;;;3.00;100.00
64292;BME280;50628;51.008;13.658;2023-11-21T18:36:12;99994.25;;;2.87;100.00
64292;BME280;50628;51.008;13.658;2023-11-21T18:41:19;100010.25;;;2.93;100.00
64292;BME280;50628;51.008;13.658;2023-11-21T18:46:22;100023.97;;;2.73;100.00
64292;BME280;50628;51.008;13.658;2023-11-21T18:51:25;100032.47;;;2.14;100.00
64292;BME280;50628;51.008;13.658;2023-11-21T18:56:27;100037.66;;;1.92;100.00
64292;BME280;50628;51.008;13.658;2023-11-21T19:01:31;100044.75;;;2.07;100.00
64292;BME280;50628;51.008;13.658;2023-11-21T19:06:34;100045.41;;;2.12;100.00
64292;BME280;50628;51.008;13.658;2023-11-21T19:11:36;100052.78;;;2.20;100.00
64292;BME280;50628;51.008;13.658;2023-11-21T19:16:38;100062.56;;;2.53;100.00
64292;BME280;50628;51.008;13.658;2023-11-21T19:21:43;100070.31;;;2.51;100.00
64292;BME280;50628;51.008;13.658;2023-11-21T19:26:45;100072.38;;;2.64;100.00
64292;BME280;50628;51.008;13.658;2023-11-21T19:31:47;100077.81;;;2.76;100.00
64292;BME280;50628;51.008;13.658;2023-11-21T19:36:50;100082.00;;;2.58;100.00
64292;BME280;50628;51.008;13.658;2023-11-21T19:41:52;100089.59;;;2.62;100.00
64292;BME280;50628;51.008;13.658;2023-11-21T19:46:54;100096.78;;;2.53;100.00
64292;BME280;50628;51.008;13.658;2023-11-21T19:51:57;100101.59;;;2.61;100.00
64292;BME280;50628;51.008;13.658;2023-11-21T19:56:59;100105.63;;;2.26;100.00
64292;BME280;50628;51.008;13.658;2023-11-21T20:02:04;100117.38;;;2.31;100.00
64292;BME280;50628;51.008;13.658;2023-11-21T20:07:08;100132.91;;;2.28;100.00
64292;BME280;50628;51.008;13.658;2023-11-21T20:12:10;100142.63;;;2.00;100.00
64292;BME280;50628;51.008;13.658;2023-11-21T20:17:12;100135.91;;;1.95;100.00
64292;BME280;50628;51.008;13.658;2023-11-21T20:22:16;100152.72;;;1.81;100.00
64292;BME280;50628;51.008;13.658;2023-11-21T20:27:18;100166.66;;;1.75;100.00
64292;BME280;50628;51.008;13.658;2023-11-21T20:32:20;100170.59;;;1.60;100.00
64292;BME280;50628;51.008;13.658;2023-11-21T20:37:26;100185.50;;;1.74;100.00
64292;BME280;50628;51.008;13.658;2023-11-21T20:42:28;100191.63;;;1.70;100.00
64292;BME280;50628;51.008;13.658;2023-11-21T20:47:30;100200.44;;;1.86;100.00
64292;BME280;50628;51.008;13.658;2023-11-21T20:52:34;100206.34;;;1.88;100.00
64292;BME280;50628;51.008;13.658;2023-11-21T20:57:36;100199.56;;;1.64;100.00
64292;BME280;50628;51.008;13.658;2023-11-21T21:02:38;100203.97;;;1.60;100.00
64292;BME280;50628;51.008;13.658;2023-11-21T21:07:41;100213.75;;;1.74;100.00
64292;BME280;50628;51.008;13.658;2023-11-21T21:12:44;100208.16;;;1.63;100.00
64292;BME280;50628;51.008;13.658;2023-11-21T21:17:46;100218.22;;;1.69;100.00
64292;BME280;50628;51.008;13.658;2023-11-21T21:22:49;100231.25;;;1.38;100.00
64292;BME280;50628;51.008;13.658;2023-11-21T21:27:53;100243.50;;;1.04;100.00
64292;BME280;50628;51.008;13.658;2023-11-21T21:32:55;100245.59;;;1.18;100.00
64292;BME280;50628;51.008;13.658;2023-11-21T21:38:02;100247.03;;;1.27;100.00
64292;BME280;50628;51.008;13.658;2023-11-21T21:43:04;100261.66;;;1.23;100.00
64292;BME280;50628;51.008;13.658;2023-11-21T21:48:06;100277.91;;;1.24;100.00
64292;BME280;50628;51.008;13.658;2023-11-21T21:53:10;100272.63;;;1.03;100.00
64292;BME280;50628;51.008;13.658;2023-11-21T21:58:12;100275.94;;;1.05;100.00
64292;BME280;50628;51.008;13.658;2023-11-21T22:03:14;100282.66;;;1.10;100.00
64292;BME280;50628;51.008;13.658;2023-11-21T22:08:17;100290.88;;;0.93;100.00
64292;BME280;50628;51.008;13.658;2023-11-21T22:13:20;100292.53;;;0.67;100.00
64292;BME280;50628;51.008;13.658;2023-11-21T22:18:21;100290.53;;;0.77;100.00
64292;BME280;50628;51.008;13.658;2023-11-21T22:23:26;100301.28;;;0.88;100.00
64292;BME280;50628;51.008;13.658;2023-11-21T22:28:28;100291.28;;;0.52;100.00
64292;BME280;50628;51.008;13.658;2023-11-21T22:33:29;100299.25;;;0.71;100.00
64292;BME280;50628;51.008;13.658;2023-11-21T22:38:33;100303.91;;;0.86;100.00
64292;BME280;50628;51.008;13.658;2023-11-21T22:43:34;100312.66;;;0.79;100.00
64292;BME280;50628;51.008;13.658;2023-11-21T22:48:36;100297.56;;;0.70;100.00
64292;BME280;50628;51.008;13.658;2023-11-21T22:53:40;100302.75;;;0.69;100.00
64292;BME280;50628;51.008;13.658;2023-11-21T22:58:42;100307.41;;;0.84;100.00
64292;BME280;50628;51.008;13.658;2023-11-21T23:03:44;100305.38;;;0.94;100.00
64292;BME280;50628;51.008;13.658;2023-11-21T23:08:48;100314.09;;;0.88;100.00
64292;BME280;50628;51.008;13.658;2023-11-21T23:13:49;100315.91;;;0.84;100.00
64292;BME280;50628;51.008;13.658;2023-11-21T23:18:51;100318.72;;;0.77;100.00
64292;BME280;50628;51.008;13.658;2023-11-21T23:23:55;100326.16;;;0.84;100.00
64292;BME280;50628;51.008;13.658;2023-11-21T23:28:57;100329.19;;;0.71;100.00
64292;BME280;50628;51.008;13.658;2023-11-21T23:33:59;100332.88;;;0.60;100.00
64292;BME280;50628;51.008;13.658;2023-11-21T23:39:03;100340.28;;;0.70;100.00
64292;BME280;50628;51.008;13.658;2023-11-21T23:44:05;100352.97;;;0.45;100.00
64292;BME280;50628;51.008;13.658;2023-11-21T23:49:07;100357.59;;;0.33;100.00
64292;BME280;50628;51.008;13.658;2023-11-21T23:54:10;100354.03;;;0.37;100.00
64292;BME280;50628;51.008;13.658;2023-11-21T23:59:12;100368.03;;;0.55;100.00
